This is the latest recevied weather packets stored in our database for station/object DG0OPK-16. If no packets are shown the sender has not sent any weather packets the latest 10 day(s).
| Time | Temp. | Humidity | Pressure | Rain* | Wind** | Luminosity | Snow |
|---|---|---|---|---|---|---|---|
| 1788663027 | 25.56° C | 33% | 1030.4 hPa | - | - | - | - |
| 1788641426 | 26.67° C | 32% | 1029 hPa | - | - | - | - |
| 1788619825 | 27.78° C | 29% | 1025.8 hPa | - | - | - | - |
| 1788598225 | 26.11° C | 34% | 1024.9 hPa | - | - | - | - |
| 1788576624 | 26.67° C | 35% | 1021.8 hPa | - | - | - | - |
| 1788555023 | 27.78° C | 35% | 1019.8 hPa | - | - | - | - |
| 1788533422 | 28.33° C | 35% | 1016.4 hPa | - | - | - | - |
| 1788511822 | 25.56° C | 34% | 1020.3 hPa | - | - | - | - |
| 1788490221 | 25.56° C | 33% | 1021.9 hPa | - | - | - | - |
| 1788468620 | 26.11° C | 33% | 1023.8 hPa | - | - | - | - |
| 1788447019 | 26.11° C | 32% | 1024 hPa | - | - | - | - |
| 1788425420 | 27.78° C | 29% | 1025.2 hPa | - | - | - | - |
| 1788403819 | 26.11° C | 32% | 1025.4 hPa | - | - | - | - |
| 1788382218 | 27.78° C | 32% | 1025.4 hPa | - | - | - | - |
| 1788360616 | 28.89° C | 29% | 1024.4 hPa | - | - | - | - |
| 1788339017 | 26.11° C | 33% | 1025.5 hPa | - | - | - | - |
| 1788317416 | 26.11° C | 33% | 1025.5 hPa | - | - | - | - |
| 1788295815 | 27.78° C | 32% | 1025.8 hPa | - | - | - | - |
| 1788274233 | 28.33° C | 31% | 1024.5 hPa | - | - | - | - |
| 1788252613 | 26.67° C | 33% | 1025.3 hPa | - | - | - | - |
| 1788231012 | 26.67° C | 33% | 1023.3 hPa | - | - | - | - |
| 1788209411 | 27.78° C | 32% | 1021.6 hPa | - | - | - | - |
| 1788187810 | 28.89° C | 30% | 1018.6 hPa | - | - | - | - |
| 1788166220 | 26.67° C | 32% | 1019 hPa | - | - | - | - |
| 1788144611 | 27.22° C | 31% | 1018.2 hPa | - | - | - | - |
* Rain since midnight (hover to see other rain measurements)
** Current wind speed in m/s (hover to see current wind gust speed)